createdAt,value
2023-01-20T00:00:27.265Z,1.70
2023-01-20T00:04:28.989Z,1.70
2023-01-20T00:08:30.678Z,1.70
2023-01-20T00:12:32.415Z,1.70
2023-01-20T00:16:34.177Z,1.70
2023-01-20T00:20:36.115Z,1.80
2023-01-20T00:24:37.817Z,1.70
2023-01-20T00:28:39.872Z,1.80
2023-01-20T00:32:45.289Z,1.80
2023-01-20T00:36:47.089Z,1.80
2023-01-20T00:40:54.935Z,1.70
2023-01-20T00:44:56.656Z,1.80
2023-01-20T00:48:58.504Z,1.80
2023-01-20T00:53:00.267Z,1.80
2023-01-20T00:57:01.993Z,1.80
2023-01-20T01:01:04.013Z,1.90
2023-01-20T01:05:06.280Z,1.80
2023-01-20T01:09:08.061Z,1.80
2023-01-20T01:13:10.067Z,1.90
2023-01-20T01:17:11.725Z,1.80
2023-01-20T01:21:16.166Z,1.80
2023-01-20T01:25:18.204Z,1.70
2023-01-20T01:29:20.224Z,1.70
2023-01-20T01:33:22.277Z,1.70
2023-01-20T01:37:24.066Z,1.70
2023-01-20T01:41:25.928Z,1.80
2023-01-20T01:45:30.056Z,1.80
2023-01-20T01:49:32.982Z,1.70
2023-01-20T01:53:41.668Z,1.70
2023-01-20T01:57:43.801Z,1.70
2023-01-20T02:01:50.286Z,1.70
2023-01-20T02:05:54.169Z,1.60
2023-01-20T02:09:56.921Z,1.60
2023-01-20T02:13:59.685Z,1.60
2023-01-20T02:18:07.221Z,1.50
2023-01-20T02:22:26.191Z,1.50
2023-01-20T02:26:46.281Z,1.50
2023-01-20T02:31:15.411Z,1.50
2023-01-20T02:35:25.693Z,1.40
2023-01-20T02:39:46.239Z,1.40
2023-01-20T02:44:07.066Z,1.50
2023-01-20T02:48:24.200Z,1.50
2023-01-20T02:52:30.140Z,1.40
2023-01-20T02:56:33.008Z,1.40
2023-01-20T03:00:48.288Z,1.40
2023-01-20T03:05:01.292Z,1.40
2023-01-20T03:09:07.268Z,1.40
2023-01-20T03:13:35.403Z,1.60
2023-01-20T03:17:37.468Z,1.60
2023-01-20T03:21:39.234Z,1.50
2023-01-20T03:25:41.488Z,1.50
2023-01-20T03:29:43.278Z,1.50
2023-01-20T03:33:48.617Z,1.60
2023-01-20T03:37:50.415Z,1.60
2023-01-20T03:42:10.440Z,1.50
2023-01-20T03:46:24.005Z,1.50
2023-01-20T03:50:32.115Z,1.50
2023-01-20T03:54:55.979Z,1.60
2023-01-20T03:59:01.337Z,1.60
2023-01-20T04:03:07.430Z,1.60
2023-01-20T04:07:14.089Z,1.60
2023-01-20T04:11:15.975Z,1.60
2023-01-20T04:15:20.128Z,1.60
2023-01-20T04:19:22.514Z,1.50
2023-01-20T04:23:39.922Z,1.50
2023-01-20T04:27:41.690Z,1.50
2023-01-20T04:31:43.422Z,1.50
2023-01-20T04:35:45.223Z,1.50
2023-01-20T04:39:46.958Z,1.60
2023-01-20T04:43:48.726Z,1.60
2023-01-20T04:47:50.700Z,1.70
2023-01-20T04:51:52.717Z,1.60
2023-01-20T04:55:54.426Z,1.60
2023-01-20T04:59:56.165Z,1.60
2023-01-20T05:03:57.889Z,1.60
2023-01-20T05:07:59.807Z,1.60
2023-01-20T05:12:01.569Z,1.60
2023-01-20T05:16:03.512Z,1.70
2023-01-20T05:20:05.602Z,1.70
2023-01-20T05:24:07.388Z,1.70
2023-01-20T05:28:09.182Z,1.70
2023-01-20T05:32:11.138Z,1.70
2023-01-20T05:36:12.928Z,1.60
2023-01-20T05:40:14.715Z,1.60
2023-01-20T05:44:16.591Z,1.50
2023-01-20T05:48:18.347Z,1.50
2023-01-20T05:52:20.151Z,1.50
2023-01-20T05:56:21.938Z,1.50
2023-01-20T06:00:23.892Z,1.50
2023-01-20T06:04:25.657Z,1.40
2023-01-20T06:08:27.399Z,1.40
2023-01-20T06:12:29.139Z,1.40
2023-01-20T06:16:30.868Z,1.50
2023-01-20T06:20:32.916Z,1.40
2023-01-20T06:24:34.611Z,1.40
2023-01-20T06:28:36.386Z,1.40
2023-01-20T06:32:38.053Z,1.50
2023-01-20T06:36:40.269Z,1.40
2023-01-20T06:40:41.924Z,1.40
2023-01-20T06:44:43.601Z,1.40
2023-01-20T06:48:46.414Z,1.50
2023-01-20T06:52:48.419Z,1.50
2023-01-20T06:56:50.032Z,1.50
2023-01-20T07:00:53.029Z,1.50
2023-01-20T07:04:54.792Z,1.50
2023-01-20T07:08:58.877Z,1.50
2023-01-20T07:13:00.705Z,1.50
2023-01-20T07:17:02.532Z,1.50
2023-01-20T07:21:04.884Z,1.50
2023-01-20T07:25:06.803Z,1.60
2023-01-20T07:29:08.534Z,1.60
2023-01-20T07:33:10.199Z,1.60
2023-01-20T07:37:11.838Z,1.60
2023-01-20T07:41:16.349Z,1.70
2023-01-20T07:45:18.190Z,1.70
2023-01-20T07:49:19.980Z,1.70
2023-01-20T07:53:21.669Z,1.70
2023-01-20T07:57:23.320Z,1.70
2023-01-20T08:01:28.317Z,1.60
2023-01-20T08:05:32.473Z,1.60
2023-01-20T08:09:34.097Z,1.50
2023-01-20T08:13:35.837Z,1.60
2023-01-20T08:17:37.500Z,1.60
2023-01-20T08:21:39.188Z,1.60
2023-01-20T08:25:40.845Z,1.60
2023-01-20T08:29:42.656Z,1.60
2023-01-20T08:33:45.391Z,1.70
2023-01-20T08:37:47.070Z,1.80
2023-01-20T08:41:49.980Z,1.80
2023-01-20T08:46:02.035Z,1.80
2023-01-20T08:50:06.137Z,1.80
2023-01-20T08:54:07.873Z,1.80
2023-01-20T08:58:09.555Z,1.90
2023-01-20T09:02:11.297Z,1.90
2023-01-20T09:06:13.599Z,2.00
2023-01-20T09:10:15.303Z,1.90
2023-01-20T09:14:21.507Z,1.90
2023-01-20T09:18:23.196Z,1.90
2023-01-20T09:22:24.840Z,1.90
2023-01-20T09:26:35.985Z,2.00
2023-01-20T09:30:37.860Z,2.00
2023-01-20T09:34:39.557Z,2.00
2023-01-20T09:38:59.716Z,2.10
2023-01-20T09:43:54.460Z,2.00
2023-01-20T09:48:51.066Z,2.10
2023-01-20T09:53:25.587Z,2.20
2023-01-20T09:57:31.654Z,2.40
2023-01-20T10:01:42.010Z,2.40
2023-01-20T10:05:45.180Z,2.40
2023-01-20T10:09:54.194Z,2.30
2023-01-20T10:14:12.769Z,2.40
2023-01-20T10:18:40.697Z,2.40
2023-01-20T10:22:48.055Z,2.40
2023-01-20T10:26:59.093Z,2.40
2023-01-20T10:31:04.175Z,2.50
2023-01-20T10:35:22.909Z,2.60
2023-01-20T10:39:34.797Z,2.70
2023-01-20T10:43:36.563Z,2.70
2023-01-20T10:48:05.605Z,2.80
2023-01-20T10:52:15.901Z,2.80
2023-01-20T10:56:17.488Z,2.80
2023-01-20T11:00:25.539Z,2.80
2023-01-20T11:04:28.095Z,2.70
2023-01-20T11:08:30.411Z,2.60
2023-01-20T11:12:39.736Z,2.70
2023-01-20T11:16:46.487Z,2.70
2023-01-20T11:20:52.466Z,2.70
2023-01-20T11:24:55.859Z,2.60
2023-01-20T11:29:28.450Z,2.60
2023-01-20T11:33:30.186Z,2.80
2023-01-20T11:37:39.194Z,2.90
2023-01-20T11:41:40.853Z,2.90
2023-01-20T11:45:42.629Z,2.90
2023-01-20T11:49:44.479Z,3.00
2023-01-20T11:53:46.877Z,3.00
2023-01-20T11:58:01.110Z,2.90
2023-01-20T12:02:08.953Z,2.80
2023-01-20T12:06:23.030Z,2.80
2023-01-20T12:10:30.120Z,2.70
2023-01-20T12:14:45.528Z,2.90
2023-01-20T12:19:01.554Z,2.90
2023-01-20T12:23:07.063Z,2.90
2023-01-20T12:27:20.471Z,2.90
2023-01-20T12:31:23.947Z,2.90
2023-01-20T12:35:30.665Z,3.10
2023-01-20T12:39:52.393Z,2.90
2023-01-20T12:44:19.399Z,2.90
2023-01-20T12:48:33.486Z,3.00
2023-01-20T12:53:14.338Z,3.00
2023-01-20T12:57:28.650Z,2.90
2023-01-20T13:01:33.356Z,3.00
2023-01-20T13:06:03.125Z,2.90
2023-01-20T13:10:17.211Z,2.90
2023-01-20T13:14:41.186Z,2.90
2023-01-20T13:19:15.212Z,2.80
2023-01-20T13:23:33.225Z,2.80
2023-01-20T13:27:37.269Z,2.80
2023-01-20T13:31:45.431Z,2.80
2023-01-20T13:35:50.010Z,2.80
2023-01-20T13:39:54.209Z,2.80
2023-01-20T13:43:55.925Z,2.90
2023-01-20T13:48:02.510Z,2.90
2023-01-20T13:52:04.257Z,3.10
2023-01-20T13:56:27.600Z,3.10
2023-01-20T14:00:29.263Z,3.10
2023-01-20T14:04:32.817Z,3.10
2023-01-20T14:08:40.287Z,3.30
2023-01-20T14:12:42.144Z,3.30
2023-01-20T14:16:44.262Z,3.40
2023-01-20T14:21:00.574Z,3.50
2023-01-20T14:25:04.275Z,3.70
2023-01-20T14:29:05.877Z,4.00
2023-01-20T14:33:10.776Z,3.80
2023-01-20T14:37:21.295Z,3.70
2023-01-20T14:41:25.122Z,3.40
2023-01-20T14:45:29.594Z,3.20
2023-01-20T14:49:34.354Z,3.10
2023-01-20T14:53:36.210Z,3.00
2023-01-20T14:57:45.136Z,3.00
2023-01-20T15:02:02.374Z,2.70
2023-01-20T15:06:10.111Z,2.70
2023-01-20T15:10:15.157Z,2.70
2023-01-20T15:14:17.043Z,2.60
2023-01-20T15:18:21.442Z,2.60
2023-01-20T15:22:26.442Z,2.50
2023-01-20T15:26:30.080Z,2.50
2023-01-20T15:30:31.769Z,2.40
2023-01-20T15:34:33.388Z,2.40
2023-01-20T15:38:34.995Z,2.30
2023-01-20T15:42:36.646Z,2.20
2023-01-20T15:46:40.078Z,2.30
2023-01-20T15:50:44.896Z,2.20
2023-01-20T15:54:46.554Z,2.10
2023-01-20T15:58:48.719Z,2.20
2023-01-20T16:02:50.913Z,2.10
2023-01-20T16:06:52.788Z,2.00
2023-01-20T16:10:54.481Z,2.00
2023-01-20T16:14:57.020Z,1.90
2023-01-20T16:18:59.139Z,1.90
2023-01-20T16:23:00.786Z,1.80
2023-01-20T16:27:04.641Z,1.80
2023-01-20T16:31:06.360Z,1.90
2023-01-20T16:35:08.391Z,1.80
2023-01-20T16:39:11.046Z,1.70
2023-01-20T16:43:12.860Z,1.70
2023-01-20T16:47:14.494Z,1.70
2023-01-20T16:51:18.619Z,1.60
2023-01-20T16:55:20.451Z,1.40
2023-01-20T16:59:22.078Z,1.40
2023-01-20T17:03:27.332Z,1.20
2023-01-20T17:07:29.031Z,1.10
2023-01-20T17:11:35.837Z,1.00
2023-01-20T17:15:40.336Z,1.00
2023-01-20T17:19:42.089Z,0.90
2023-01-20T17:23:43.769Z,0.80
2023-01-20T17:27:45.913Z,0.70
2023-01-20T17:31:47.605Z,0.60
2023-01-20T17:35:56.503Z,0.60
2023-01-20T17:39:59.644Z,0.60
2023-01-20T17:44:01.680Z,0.50
2023-01-20T17:48:04.662Z,0.40
2023-01-20T17:52:06.425Z,0.40
2023-01-20T17:56:12.788Z,0.30
2023-01-20T18:00:15.690Z,0.20
2023-01-20T18:04:18.233Z,0.20
2023-01-20T18:08:19.925Z,0.20
2023-01-20T18:12:21.633Z,0.20
2023-01-20T18:16:27.220Z,0.10
2023-01-20T18:20:28.934Z,0.00
2023-01-20T18:24:30.603Z,-0.10
2023-01-20T18:28:33.204Z,-0.20
2023-01-20T18:32:34.930Z,-0.10
2023-01-20T18:36:40.076Z,-0.10
2023-01-20T18:40:41.674Z,-0.10
2023-01-20T18:44:43.810Z,-0.10
2023-01-20T18:48:47.182Z,-0.10
2023-01-20T18:52:48.868Z,-0.10
2023-01-20T18:56:50.529Z,-0.10
2023-01-20T19:00:52.203Z,-0.10
2023-01-20T19:04:53.859Z,-0.20
2023-01-20T19:08:57.311Z,-0.20
2023-01-20T19:12:59.005Z,-0.30
2023-01-20T19:17:00.671Z,-0.30
2023-01-20T19:21:07.699Z,-0.30
2023-01-20T19:25:09.926Z,-0.30
2023-01-20T19:29:15.523Z,-0.50
2023-01-20T19:33:17.460Z,-0.50
2023-01-20T19:37:19.139Z,-0.50
2023-01-20T19:41:25.715Z,-0.50
2023-01-20T19:45:40.378Z,-0.50
2023-01-20T19:49:46.707Z,-0.50
2023-01-20T19:53:50.084Z,-0.50
2023-01-20T19:57:51.797Z,-0.60
2023-01-20T20:01:53.533Z,-0.60
2023-01-20T20:05:57.178Z,-0.60
2023-01-20T20:09:59.021Z,-0.60
2023-01-20T20:14:02.709Z,-0.70
2023-01-20T20:18:04.389Z,-0.70
2023-01-20T20:22:06.042Z,-0.70
2023-01-20T20:26:11.957Z,-0.70
2023-01-20T20:30:13.939Z,-0.80
2023-01-20T20:34:17.819Z,-0.80
2023-01-20T20:38:19.591Z,-0.80
2023-01-20T20:42:21.279Z,-0.80
2023-01-20T20:46:23.503Z,-0.80
2023-01-20T20:50:25.325Z,-0.90
2023-01-20T20:54:27.059Z,-0.90
2023-01-20T20:58:29.914Z,-0.90
2023-01-20T21:02:31.979Z,-0.90
2023-01-20T21:06:34.169Z,-0.90
2023-01-20T21:10:35.837Z,-1.00
2023-01-20T21:14:37.576Z,-1.10
2023-01-20T21:18:40.631Z,-1.10
2023-01-20T21:22:42.321Z,-1.10
2023-01-20T21:26:44.716Z,-1.20
2023-01-20T21:30:46.588Z,-1.20
2023-01-20T21:34:48.339Z,-1.20
2023-01-20T21:38:50.679Z,-1.20
2023-01-20T21:42:54.390Z,-1.20
2023-01-20T21:46:59.701Z,-1.20
2023-01-20T21:51:19.922Z,-1.20
2023-01-20T21:55:23.997Z,-1.20
2023-01-20T21:59:27.518Z,-1.20
2023-01-20T22:03:29.270Z,-1.20
2023-01-20T22:07:30.992Z,-1.30
2023-01-20T22:11:32.678Z,-1.40
2023-01-20T22:15:34.784Z,-1.40
2023-01-20T22:19:36.619Z,-1.40
2023-01-20T22:23:38.229Z,-1.40
2023-01-20T22:27:39.881Z,-1.50
2023-01-20T22:31:41.771Z,-1.50
2023-01-20T22:35:43.891Z,-1.50
2023-01-20T22:39:45.615Z,-1.40
2023-01-20T22:43:48.044Z,-1.20
2023-01-20T22:47:50.057Z,-1.20
2023-01-20T22:51:54.243Z,-1.20
2023-01-20T22:56:02.273Z,-1.20
2023-01-20T23:00:06.005Z,-1.10
2023-01-20T23:04:07.772Z,-1.20
2023-01-20T23:08:09.415Z,-1.20
2023-01-20T23:12:11.113Z,-1.20
2023-01-20T23:16:15.116Z,-1.20
2023-01-20T23:20:17.225Z,-1.30
2023-01-20T23:24:19.040Z,-1.30
2023-01-20T23:28:20.687Z,-1.30
2023-01-20T23:32:22.317Z,-1.30
2023-01-20T23:36:25.583Z,-1.40
2023-01-20T23:40:27.413Z,-1.30
2023-01-20T23:44:29.039Z,-1.30
2023-01-20T23:48:31.359Z,-1.40
2023-01-20T23:52:32.990Z,-1.40
2023-01-20T23:56:35.118Z,-1.40
